Time;durP1;ratioP1;P1;durP2;ratioP2;P2;SDS_P1;SDS_P2;PMS_P1;PMS_P2;Temp;Humidity;BMP_temperature;BMP_pressure;BME280_temperature;BME280_humidity;BME280_pressure;Samples;Min_cycle;Max_cycle;Signal;HPM_P1;HPM_P2
2022/10/11 00:00:55;;;;;;;;;;;7.00;99.90;;;;;;5074702;28;19908;-71
2022/10/11 00:03:20;;;;;;;;;;;7.00;99.90;;;;;;5073047;28;20367;-71
2022/10/11 00:05:46;;;;;;;;;;;6.90;99.90;;;;;;5056406;28;20308;-71
2022/10/11 00:08:12;;;;;;;;;;;6.90;99.90;;;;;;5074144;28;19916;-71
2022/10/11 00:10:38;;;;;;;;;;;6.80;99.90;;;;;;5074474;28;19908;-71
2022/10/11 00:13:04;;;;;;;;;;;6.80;99.90;;;;;;5074154;28;19909;-73
2022/10/11 00:15:29;;;;;;;;;;;6.70;99.90;;;;;;5072956;28;19909;-71
2022/10/11 00:17:55;;;;;;;;;;;6.70;99.90;;;;;;5056293;28;19908;-71
2022/10/11 00:20:20;;;;;;;;;;;6.60;99.90;;;;;;5074378;28;19962;-71
2022/10/11 00:22:48;;;;;;;;;;;6.60;99.90;;;;;;5074117;28;19995;-71
2022/10/11 00:25:13;;;;;;;;;;;6.60;99.90;;;;;;5056088;28;20392;-72
2022/10/11 00:27:39;;;;;;;;;;;6.50;99.90;;;;;;5072887;28;19908;-71
2022/10/11 00:30:05;;;;;;;;;;;6.40;99.90;;;;;;5074264;28;19908;-71
2022/10/11 00:32:31;;;;;;;;;;;6.40;99.90;;;;;;5073018;28;20014;-72
2022/10/11 00:34:58;;;;;;;;;;;6.30;99.90;;;;;;5073031;28;20389;-71
2022/10/11 00:37:24;;;;;;;;;;;6.30;99.90;;;;;;5074080;28;19999;-71
2022/10/11 00:39:49;;;;;;;;;;;6.20;99.90;;;;;;5055648;28;19955;-71
2022/10/11 00:42:15;;;;;;;;;;;6.20;99.90;;;;;;5072475;28;19918;-71
2022/10/11 00:44:44;;;;;;;;;;;6.20;99.90;;;;;;5073915;28;20409;-71
2022/10/11 00:47:14;;;;;;;;;;;6.20;99.90;;;;;;5072659;28;20389;-71
2022/10/11 00:49:40;;;;;;;;;;;6.10;99.90;;;;;;5072810;28;20287;-71
2022/10/11 00:52:12;;;;;;;;;;;6.00;99.90;;;;;;5073840;28;20387;-71
2022/10/11 00:54:40;;;;;;;;;;;6.00;99.90;;;;;;5055871;28;19908;-71
2022/10/11 00:57:08;;;;;;;;;;;6.00;99.90;;;;;;5072479;28;19955;-72
2022/10/11 00:59:35;;;;;;;;;;;6.00;99.90;;;;;;5072446;28;19909;-71
2022/10/11 01:02:01;;;;;;;;;;;5.90;99.90;;;;;;5072561;28;19961;-71
2022/10/11 01:04:26;;;;;;;;;;;5.90;99.90;;;;;;5073882;28;19912;-71
2022/10/11 01:06:52;;;;;;;;;;;5.90;99.90;;;;;;5072421;28;20049;-71
2022/10/11 01:09:18;;;;;;;;;;;5.90;99.90;;;;;;5072440;28;19908;-71
2022/10/11 01:11:45;;;;;;;;;;;5.80;99.90;;;;;;5072588;28;19909;-71
2022/10/11 01:14:19;;;;;;;;;;;5.80;99.90;;;;;;5073716;28;19919;-71
2022/10/11 01:16:50;;;;;;;;;;;5.80;99.90;;;;;;5072570;28;19908;-72
2022/10/11 01:19:36;;;;;;;;;;;5.80;99.90;;;;;;5055714;28;19955;-72
2022/10/11 01:22:21;;;;;;;;;;;5.80;99.90;;;;;;5073357;28;19913;-71
2022/10/11 01:25:06;;;;;;;;;;;5.80;99.90;;;;;;5073500;28;20389;-71
2022/10/11 01:27:52;;;;;;;;;;;5.80;99.90;;;;;;5073694;28;20290;-71
2022/10/11 01:30:25;;;;;;;;;;;5.90;99.90;;;;;;5073348;28;20321;-71
2022/10/11 01:32:56;;;;;;;;;;;5.90;99.90;;;;;;5073248;28;19920;-71
2022/10/11 01:35:42;;;;;;;;;;;5.90;99.90;;;;;;5072051;28;20003;-71
2022/10/11 01:38:15;;;;;;;;;;;5.90;99.90;;;;;;5073435;28;19912;-71
2022/10/11 01:40:45;;;;;;;;;;;5.80;99.90;;;;;;5073335;28;19912;-72
2022/10/11 01:43:11;;;;;;;;;;;5.80;99.90;;;;;;5071937;28;19924;-70
2022/10/11 01:45:37;;;;;;;;;;;5.80;99.90;;;;;;5073233;28;19909;-71
2022/10/11 01:48:05;;;;;;;;;;;5.70;99.90;;;;;;5073366;28;19999;-71
2022/10/11 01:50:36;;;;;;;;;;;5.60;99.90;;;;;;5074445;28;19908;-71
2022/10/11 01:53:09;;;;;;;;;;;5.60;99.90;;;;;;5075798;28;19913;-71
2022/10/11 01:55:45;;;;;;;;;;;5.60;99.90;;;;;;5075516;28;20340;-71
2022/10/11 01:58:16;;;;;;;;;;;5.50;99.90;;;;;;5059107;28;19927;-71
2022/10/11 02:01:02;;;;;;;;;;;5.50;99.90;;;;;;5058688;28;19908;-71
2022/10/11 02:03:41;;;;;;;;;;;5.40;99.90;;;;;;5076499;28;19912;-71
2022/10/11 02:06:11;;;;;;;;;;;5.40;99.90;;;;;;5075683;28;19909;-72
2022/10/11 02:08:43;;;;;;;;;;;5.40;99.90;;;;;;5075920;28;19909;-70
2022/10/11 02:11:18;;;;;;;;;;;5.40;99.90;;;;;;5075766;28;19908;-71
2022/10/11 02:13:46;;;;;;;;;;;5.40;99.90;;;;;;5075563;28;19978;-71
2022/10/11 02:16:13;;;;;;;;;;;5.30;99.90;;;;;;5076372;28;19908;-71
2022/10/11 02:18:42;;;;;;;;;;;5.40;99.90;;;;;;5076616;28;19916;-71
2022/10/11 02:21:09;;;;;;;;;;;5.30;99.90;;;;;;5075626;28;19958;-71
2022/10/11 02:23:38;;;;;;;;;;;5.30;99.90;;;;;;5076764;28;19955;-70
2022/10/11 02:26:05;;;;;;;;;;;5.30;99.90;;;;;;5076078;28;20416;-70
2022/10/11 02:28:32;;;;;;;;;;;5.30;99.90;;;;;;5076913;28;20262;-70
2022/10/11 02:30:59;;;;;;;;;;;5.30;99.90;;;;;;5076557;28;19909;-70
2022/10/11 02:33:27;;;;;;;;;;;5.30;99.90;;;;;;5075568;28;20373;-71
2022/10/11 02:35:56;;;;;;;;;;;5.20;99.90;;;;;;5076038;28;19909;-70
2022/10/11 02:38:24;;;;;;;;;;;5.20;99.90;;;;;;5075358;28;20280;-70
2022/10/11 02:40:53;;;;;;;;;;;5.20;99.90;;;;;;5076782;28;19908;-70
2022/10/11 02:43:23;;;;;;;;;;;5.10;99.90;;;;;;5075683;28;19946;-70
2022/10/11 02:45:54;;;;;;;;;;;5.20;99.90;;;;;;5077872;28;19909;-70
2022/10/11 02:48:20;;;;;;;;;;;5.10;99.90;;;;;;5077785;28;20395;-70
2022/10/11 02:50:46;;;;;;;;;;;5.10;99.90;;;;;;5076002;28;19908;-70
2022/10/11 02:53:11;;;;;;;;;;;5.20;99.90;;;;;;5058713;28;19981;-71
2022/10/11 02:55:37;;;;;;;;;;;5.20;99.90;;;;;;5077478;28;19908;-70
2022/10/11 02:58:02;;;;;;;;;;;5.20;99.90;;;;;;5076958;28;19908;-71
2022/10/11 03:00:28;;;;;;;;;;;5.30;99.90;;;;;;5076524;28;19926;-71
2022/10/11 03:02:53;;;;;;;;;;;5.30;99.90;;;;;;5076991;28;19919;-70
2022/10/11 03:05:19;;;;;;;;;;;5.40;99.90;;;;;;5075204;28;19931;-71
2022/10/11 03:07:44;;;;;;;;;;;5.40;99.90;;;;;;5057767;28;19909;-70
2022/10/11 03:10:10;;;;;;;;;;;5.40;99.90;;;;;;5075439;28;20089;-70
2022/10/11 03:12:36;;;;;;;;;;;5.40;99.90;;;;;;5057227;28;19940;-71
2022/10/11 03:15:01;;;;;;;;;;;5.30;99.90;;;;;;5075109;28;20359;-71
2022/10/11 03:17:27;;;;;;;;;;;5.30;99.90;;;;;;5075114;28;19908;-71
2022/10/11 03:19:53;;;;;;;;;;;5.30;99.90;;;;;;5075141;28;19916;-70
2022/10/11 03:22:18;;;;;;;;;;;5.20;99.90;;;;;;5057047;28;19909;-71
2022/10/11 03:24:44;;;;;;;;;;;5.30;99.90;;;;;;5074134;28;19919;-70
2022/10/11 03:27:09;;;;;;;;;;;5.20;99.90;;;;;;5057152;28;19931;-70
2022/10/11 03:29:35;;;;;;;;;;;5.20;99.90;;;;;;5074536;28;19908;-71
2022/10/11 03:32:00;;;;;;;;;;;5.20;99.90;;;;;;5074605;28;19912;-70
2022/10/11 03:34:26;;;;;;;;;;;5.20;99.90;;;;;;5076203;28;19909;-70
2022/10/11 03:36:51;;;;;;;;;;;5.20;99.90;;;;;;5074061;28;19908;-71
2022/10/11 03:39:17;;;;;;;;;;;5.20;99.90;;;;;;5074848;28;19922;-70
2022/10/11 03:41:42;;;;;;;;;;;5.20;99.90;;;;;;5075970;28;20375;-70
2022/10/11 03:44:08;;;;;;;;;;;5.30;99.90;;;;;;5074281;28;20295;-72
2022/10/11 03:46:33;;;;;;;;;;;5.30;99.90;;;;;;5057240;28;19908;-70
2022/10/11 03:48:59;;;;;;;;;;;5.30;99.90;;;;;;5075805;28;19908;-71
2022/10/11 03:51:24;;;;;;;;;;;5.40;99.90;;;;;;5075159;28;20368;-71
2022/10/11 03:53:49;;;;;;;;;;;5.30;99.90;;;;;;5073977;28;19909;-70
2022/10/11 03:56:15;;;;;;;;;;;5.30;99.90;;;;;;5075348;28;19908;-70
2022/10/11 03:58:40;;;;;;;;;;;5.30;99.90;;;;;;5057310;28;19913;-70
2022/10/11 04:01:06;;;;;;;;;;;5.20;99.90;;;;;;5073758;28;19977;-70
2022/10/11 04:03:32;;;;;;;;;;;5.20;99.90;;;;;;5073691;28;19920;-71
2022/10/11 04:05:57;;;;;;;;;;;5.20;99.90;;;;;;5073694;28;20393;-70
2022/10/11 04:08:23;;;;;;;;;;;5.20;99.90;;;;;;5073574;28;19908;-71
2022/10/11 04:10:48;;;;;;;;;;;5.20;99.90;;;;;;5073860;28;19912;-70
2022/10/11 04:13:14;;;;;;;;;;;5.20;99.90;;;;;;5056629;28;20287;-71
2022/10/11 04:15:40;;;;;;;;;;;5.20;99.90;;;;;;5074998;28;19908;-71
2022/10/11 04:18:06;;;;;;;;;;;5.20;99.90;;;;;;5073403;28;19908;-71
2022/10/11 04:20:31;;;;;;;;;;;5.20;99.90;;;;;;5075058;28;20341;-71
2022/10/11 04:22:57;;;;;;;;;;;5.30;99.90;;;;;;5074479;28;19912;-70
2022/10/11 04:25:23;;;;;;;;;;;5.30;99.90;;;;;;5073526;28;19915;-70
2022/10/11 04:27:48;;;;;;;;;;;5.30;99.90;;;;;;5074575;28;19919;-70
2022/10/11 04:30:15;;;;;;;;;;;5.30;99.90;;;;;;5075032;28;19912;-70
2022/10/11 04:32:40;;;;;;;;;;;5.20;99.90;;;;;;5073485;28;19909;-71
2022/10/11 04:35:06;;;;;;;;;;;5.20;99.90;;;;;;5073527;28;19916;-71
2022/10/11 04:37:32;;;;;;;;;;;5.10;99.90;;;;;;5074268;28;19915;-71
2022/10/11 04:39:57;;;;;;;;;;;5.10;99.90;;;;;;5074758;28;19908;-71
2022/10/11 04:42:23;;;;;;;;;;;5.10;99.90;;;;;;5074109;28;19923;-70
2022/10/11 04:44:48;;;;;;;;;;;5.00;99.90;;;;;;5072893;28;19912;-70
2022/10/11 04:47:14;;;;;;;;;;;5.00;99.90;;;;;;5056638;28;19909;-71
2022/10/11 04:49:39;;;;;;;;;;;5.00;99.90;;;;;;5073313;28;20409;-71
2022/10/11 04:52:04;;;;;;;;;;;4.90;99.90;;;;;;5073456;28;20003;-70
2022/10/11 04:54:30;;;;;;;;;;;5.00;99.90;;;;;;5074187;28;20389;-70
2022/10/11 04:56:56;;;;;;;;;;;5.00;99.90;;;;;;5056340;28;20286;-71
2022/10/11 04:59:21;;;;;;;;;;;4.90;99.90;;;;;;5072938;28;19931;-71
2022/10/11 05:01:47;;;;;;;;;;;4.90;99.90;;;;;;5073324;28;19916;-70
2022/10/11 05:04:12;;;;;;;;;;;4.90;99.90;;;;;;5074056;28;19942;-71
2022/10/11 05:06:38;;;;;;;;;;;4.90;99.90;;;;;;5074291;28;19909;-71
2022/10/11 05:09:03;;;;;;;;;;;4.90;99.90;;;;;;5072807;28;19916;-71
2022/10/11 05:11:29;;;;;;;;;;;4.80;99.90;;;;;;5074114;28;19908;-71
2022/10/11 05:13:55;;;;;;;;;;;4.80;99.90;;;;;;5074451;28;19915;-71
2022/10/11 05:16:21;;;;;;;;;;;4.70;99.90;;;;;;5074103;28;19947;-70
2022/10/11 05:18:46;;;;;;;;;;;4.70;99.90;;;;;;5074193;28;19909;-70
2022/10/11 05:21:16;;;;;;;;;;;4.60;99.90;;;;;;5073978;28;19912;-71
2022/10/11 05:23:42;;;;;;;;;;;4.60;99.90;;;;;;5055851;28;19965;-70
2022/10/11 05:26:07;;;;;;;;;;;4.60;99.90;;;;;;5076575;28;19908;-71
2022/10/11 05:28:33;;;;;;;;;;;4.60;99.90;;;;;;5076998;28;19908;-70
2022/10/11 05:30:58;;;;;;;;;;;4.60;99.90;;;;;;5078318;28;19909;-71
2022/10/11 05:33:24;;;;;;;;;;;4.50;99.90;;;;;;5077668;28;19943;-71
2022/10/11 05:35:50;;;;;;;;;;;4.50;99.90;;;;;;5078257;28;19917;-70
2022/10/11 05:38:16;;;;;;;;;;;4.50;99.90;;;;;;5079866;28;19966;-71
2022/10/11 05:40:44;;;;;;;;;;;4.50;99.90;;;;;;5079392;28;19912;-70
2022/10/11 05:43:10;;;;;;;;;;;4.40;99.90;;;;;;5077814;28;19927;-70
2022/10/11 05:45:36;;;;;;;;;;;4.50;99.90;;;;;;5078798;28;20003;-70
2022/10/11 05:48:02;;;;;;;;;;;4.50;99.90;;;;;;5080449;28;19909;-71
2022/10/11 05:50:27;;;;;;;;;;;4.40;99.90;;;;;;5080239;28;19932;-70
2022/10/11 05:52:53;;;;;;;;;;;4.40;99.90;;;;;;5063527;28;19908;-71
2022/10/11 05:55:18;;;;;;;;;;;4.50;99.90;;;;;;5079096;28;19930;-70
2022/10/11 05:57:44;;;;;;;;;;;4.50;99.90;;;;;;5080048;28;20011;-70
2022/10/11 06:00:09;;;;;;;;;;;4.50;99.90;;;;;;5059665;28;19916;-71
2022/10/11 06:02:35;;;;;;;;;;;4.50;99.90;;;;;;5077319;28;19915;-71
2022/10/11 06:05:00;;;;;;;;;;;4.60;99.90;;;;;;5072014;28;19917;-71
2022/10/11 06:07:26;;;;;;;;;;;4.60;99.90;;;;;;5053112;28;19951;-71
2022/10/11 06:09:51;;;;;;;;;;;4.70;99.90;;;;;;5063620;28;19913;-70
2022/10/11 06:12:17;;;;;;;;;;;4.80;99.90;;;;;;5071406;28;19913;-71
2022/10/11 06:14:43;;;;;;;;;;;4.90;99.90;;;;;;5075983;28;19913;-70
2022/10/11 06:17:09;;;;;;;;;;;5.00;99.90;;;;;;5054578;28;19920;-70
2022/10/11 06:19:34;;;;;;;;;;;5.10;99.90;;;;;;5063611;28;19916;-71
2022/10/11 06:22:00;;;;;;;;;;;5.20;99.90;;;;;;5077458;28;20436;-71
2022/10/11 06:24:25;;;;;;;;;;;5.40;99.90;;;;;;5061741;28;19912;-70
2022/10/11 06:26:51;;;;;;;;;;;5.40;99.90;;;;;;5078943;28;19936;-70
2022/10/11 06:29:16;;;;;;;;;;;5.50;99.90;;;;;;5069452;28;19912;-70
2022/10/11 06:31:42;;;;;;;;;;;5.70;99.90;;;;;;5066378;28;19913;-71
2022/10/11 06:34:07;;;;;;;;;;;5.90;99.90;;;;;;5076475;28;20363;-70
2022/10/11 06:36:36;;;;;;;;;;;6.10;99.90;;;;;;5047954;28;19909;-70
2022/10/11 06:39:01;;;;;;;;;;;6.40;99.90;;;;;;5071267;28;19916;-71
2022/10/11 06:41:29;;;;;;;;;;;6.60;99.90;;;;;;5042154;28;19915;-71
2022/10/11 06:43:54;;;;;;;;;;;6.80;99.90;;;;;;5054606;28;19963;-71
2022/10/11 06:46:21;;;;;;;;;;;7.30;99.90;;;;;;5068428;28;19919;-71
2022/10/11 06:48:47;;;;;;;;;;;7.80;99.90;;;;;;5075967;28;19931;-72
2022/10/11 06:51:14;;;;;;;;;;;8.00;99.90;;;;;;5069785;28;19913;-72
2022/10/11 06:53:40;;;;;;;;;;;8.30;99.90;;;;;;5074589;28;20430;-71
2022/10/11 06:56:07;;;;;;;;;;;8.80;99.90;;;;;;5075845;28;19955;-73
2022/10/11 06:58:32;;;;;;;;;;;9.40;99.90;;;;;;5075516;28;20357;-73
2022/10/11 07:00:58;;;;;;;;;;;10.20;99.90;;;;;;5075591;28;19912;-70
2022/10/11 07:03:24;;;;;;;;;;;11.20;99.90;;;;;;5067829;28;19932;-71
2022/10/11 07:05:49;;;;;;;;;;;11.60;99.90;;;;;;5075919;28;19915;-72
2022/10/11 07:08:15;;;;;;;;;;;12.20;99.90;;;;;;5056984;28;19916;-73
2022/10/11 07:10:40;;;;;;;;;;;12.80;99.90;;;;;;5073865;28;19924;-71
2022/10/11 07:13:06;;;;;;;;;;;13.00;99.90;;;;;;5056878;28;20024;-70
2022/10/11 07:15:35;;;;;;;;;;;12.90;99.90;;;;;;5072014;28;19927;-70
2022/10/11 07:18:00;;;;;;;;;;;13.10;99.90;;;;;;5051510;28;19923;-70
2022/10/11 07:20:26;;;;;;;;;;;12.60;99.90;;;;;;5073000;28;19912;-70
2022/10/11 07:22:51;;;;;;;;;;;12.50;99.90;;;;;;5074570;28;19968;-71
2022/10/11 07:25:17;;;;;;;;;;;12.20;99.90;;;;;;5060318;28;19913;-70
2022/10/11 07:27:42;;;;;;;;;;;12.20;99.90;;;;;;5071189;28;19912;-70
2022/10/11 07:30:08;;;;;;;;;;;12.40;99.90;;;;;;5058888;28;19912;-74
2022/10/11 07:32:34;;;;;;;;;;;13.00;99.90;;;;;;5060371;28;19920;-74
2022/10/11 07:34:59;;;;;;;;;;;13.50;99.90;;;;;;5053525;28;20020;-71
2022/10/11 07:37:25;;;;;;;;;;;13.80;99.90;;;;;;5060128;28;19912;-71
2022/10/11 07:39:50;;;;;;;;;;;13.70;99.90;;;;;;5071484;28;19980;-71
2022/10/11 07:42:16;;;;;;;;;;;13.00;99.90;;;;;;5074401;28;19921;-70
2022/10/11 07:44:41;;;;;;;;;;;12.20;99.90;;;;;;5074637;28;20347;-70
2022/10/11 07:47:07;;;;;;;;;;;12.60;99.90;;;;;;5062746;28;19916;-70
2022/10/11 07:49:32;;;;;;;;;;;13.00;99.90;;;;;;5074923;28;19908;-71
2022/10/11 07:51:58;;;;;;;;;;;13.40;99.90;;;;;;5075015;28;19912;-72
2022/10/11 07:54:23;;;;;;;;;;;13.20;99.90;;;;;;5061817;28;20384;-70
2022/10/11 07:56:49;;;;;;;;;;;13.70;99.90;;;;;;5068809;28;19919;-70
2022/10/11 07:59:14;;;;;;;;;;;13.60;99.90;;;;;;5051757;28;19981;-71
2022/10/11 08:01:40;;;;;;;;;;;13.60;99.90;;;;;;5075112;28;20004;-68
2022/10/11 08:04:05;;;;;;;;;;;14.10;99.90;;;;;;5052252;28;19974;-68
2022/10/11 08:06:31;;;;;;;;;;;14.30;99.90;;;;;;5094009;28;20361;-72
2022/10/11 08:08:57;;;;;;;;;;;14.30;99.90;;;;;;5054603;28;19999;-70
2022/10/11 08:11:25;;;;;;;;;;;14.30;99.90;;;;;;5074075;28;20378;-70
2022/10/11 08:13:51;;;;;;;;;;;14.00;99.90;;;;;;5067638;28;20379;-69
2022/10/11 08:16:17;;;;;;;;;;;13.40;99.90;;;;;;5074914;28;19913;-69
2022/10/11 08:18:42;;;;;;;;;;;13.40;99.90;;;;;;5042009;28;19919;-70
2022/10/11 08:21:09;;;;;;;;;;;13.50;99.90;;;;;;5092158;28;19908;-70
2022/10/11 08:23:34;;;;;;;;;;;14.00;99.90;;;;;;5073098;28;19937;-70
2022/10/11 08:26:00;;;;;;;;;;;13.80;99.90;;;;;;5065028;28;20375;-70
2022/10/11 08:28:25;;;;;;;;;;;14.00;99.90;;;;;;5044929;28;20500;-69
2022/10/11 08:30:52;;;;;;;;;;;14.30;99.90;;;;;;5072552;28;19923;-70
2022/10/11 08:33:17;;;;;;;;;;;14.70;99.90;;;;;;5041151;28;19913;-72
2022/10/11 08:35:43;;;;;;;;;;;15.30;99.90;;;;;;5061110;28;19945;-71
2022/10/11 08:38:09;;;;;;;;;;;15.70;99.90;;;;;;5071042;28;20313;-71
2022/10/11 08:40:34;;;;;;;;;;;15.70;99.90;;;;;;5042051;28;19951;-72
2022/10/11 08:43:09;;;;;;;;;;;15.40;99.90;;;;;;5039164;28;20000;-71
2022/10/11 08:45:37;;;;;;;;;;;15.30;99.90;;;;;;5055314;28;19970;-73
2022/10/11 08:48:10;;;;;;;;;;;15.20;99.90;;;;;;5067316;28;19912;-72
2022/10/11 08:50:36;;;;;;;;;;;15.60;99.90;;;;;;5065771;28;19916;-72
2022/10/11 08:53:04;;;;;;;;;;;15.90;99.90;;;;;;5070100;28;19916;-73
2022/10/11 08:55:42;;;;;;;;;;;16.40;99.90;;;;;;5055629;28;19969;-70
2022/10/11 08:58:11;;;;;;;;;;;16.10;99.90;;;;;;5068777;28;19912;-71
2022/10/11 09:00:37;;;;;;;;;;;16.60;99.90;;;;;;5059177;28;19920;-71
2022/10/11 09:03:20;;;;;;;;;;;16.30;99.90;;;;;;5046850;28;19936;-73
2022/10/11 09:05:57;;;;;;;;;;;16.50;99.90;;;;;;5077571;28;19995;-73
2022/10/11 09:08:27;;;;;;;;;;;17.10;99.90;;;;;;5046502;28;19924;-72
2022/10/11 09:10:59;;;;;;;;;;;17.40;99.90;;;;;;5068223;28;19915;-73
2022/10/11 09:13:45;;;;;;;;;;;17.30;99.90;;;;;;5060033;28;19919;-73
2022/10/11 09:16:30;;;;;;;;;;;17.20;99.90;;;;;;5069265;28;19927;-73
2022/10/11 09:19:15;;;;;;;;;;;17.10;99.90;;;;;;5068035;28;20312;-73
2022/10/11 09:22:01;;;;;;;;;;;17.50;99.90;;;;;;5071074;28;20259;-73
2022/10/11 09:24:31;;;;;;;;;;;16.90;99.90;;;;;;5078477;28;20386;-72
2022/10/11 09:26:59;;;;;;;;;;;17.40;99.90;;;;;;5066339;28;20005;-73
2022/10/11 09:29:45;;;;;;;;;;;17.10;99.90;;;;;;5068796;28;19919;-72
2022/10/11 09:32:13;;;;;;;;;;;17.60;99.90;;;;;;5076856;28;20367;-73
2022/10/11 09:34:39;;;;;;;;;;;17.80;99.90;;;;;;5075910;28;19919;-71
2022/10/11 09:37:10;;;;;;;;;;;17.50;99.90;;;;;;5078672;28;19999;-70
2022/10/11 09:39:38;;;;;;;;;;;17.30;99.90;;;;;;5063666;28;19919;-70
2022/10/11 09:42:06;;;;;;;;;;;17.80;99.90;;;;;;5065113;28;19923;-70
2022/10/11 09:44:34;;;;;;;;;;;17.80;99.90;;;;;;5073663;28;19923;-70
2022/10/11 09:46:59;;;;;;;;;;;17.60;99.90;;;;;;5059162;28;19916;-70
2022/10/11 09:49:32;;;;;;;;;;;17.60;99.90;;;;;;5054018;28;19917;-71
2022/10/11 09:52:00;;;;;;;;;;;18.60;99.90;;;;;;5065345;28;19968;-71
2022/10/11 09:54:42;;;;;;;;;;;17.90;99.90;;;;;;5054879;28;19913;-71
2022/10/11 09:57:18;;;;;;;;;;;17.50;99.90;;;;;;5066886;28;19912;-71
2022/10/11 09:59:56;;;;;;;;;;;17.80;99.90;;;;;;5077515;28;19912;-72
2022/10/11 10:02:22;;;;;;;;;;;18.10;99.90;;;;;;5044960;28;19916;-72
2022/10/11 10:05:07;;;;;;;;;;;17.80;99.90;;;;;;5058489;28;19916;-73
2022/10/11 10:07:34;;;;;;;;;;;17.80;99.90;;;;;;5070977;28;19908;-72
2022/10/11 10:10:19;;;;;;;;;;;17.40;99.90;;;;;;5075198;28;20446;-71
2022/10/11 10:12:51;;;;;;;;;;;17.80;99.90;;;;;;5073105;28;20275;-71
2022/10/11 10:15:18;;;;;;;;;;;17.80;99.90;;;;;;5069353;28;19909;-72
2022/10/11 10:17:48;;;;;;;;;;;18.10;99.90;;;;;;5069057;28;19920;-71
2022/10/11 10:20:20;;;;;;;;;;;18.50;99.90;;;;;;5082818;28;19912;-71
2022/10/11 10:22:45;;;;;;;;;;;18.80;99.90;;;;;;5061355;28;19926;-72
2022/10/11 10:25:18;;;;;;;;;;;19.20;99.90;;;;;;5058509;28;19916;-74
2022/10/11 10:27:55;;;;;;;;;;;19.30;99.90;;;;;;5057416;28;19912;-72
2022/10/11 10:30:21;;;;;;;;;;;19.00;99.90;;;;;;5066667;28;20007;-72
2022/10/11 10:32:50;;;;;;;;;;;18.40;99.90;;;;;;5060667;28;20418;-72
2022/10/11 10:35:26;;;;;;;;;;;18.70;99.90;;;;;;5066295;28;19912;-71
2022/10/11 10:38:10;;;;;;;;;;;18.70;99.90;;;;;;5076926;28;19917;-72
2022/10/11 10:40:47;;;;;;;;;;;19.30;99.90;;;;;;5059709;28;19913;-72
2022/10/11 10:43:14;;;;;;;;;;;19.10;99.90;;;;;;5066449;28;20431;-72
2022/10/11 10:45:48;;;;;;;;;;;19.10;99.90;;;;;;5076549;28;19963;-73
2022/10/11 10:48:19;;;;;;;;;;;18.70;99.90;;;;;;5070966;28;19948;-72
2022/10/11 10:51:04;;;;;;;;;;;18.80;99.90;;;;;;5046622;28;19919;-72
2022/10/11 10:53:36;;;;;;;;;;;18.00;99.90;;;;;;5063230;28;19913;-73
2022/10/11 10:56:11;;;;;;;;;;;17.60;99.90;;;;;;5043248;28;20383;-71
2022/10/11 10:58:56;;;;;;;;;;;18.00;99.90;;;;;;5057180;28;20424;-73
2022/10/11 11:01:22;;;;;;;;;;;18.20;99.90;;;;;;5070627;28;19917;-73
2022/10/11 11:03:59;;;;;;;;;;;18.60;99.90;;;;;;5044730;28;19943;-72
2022/10/11 11:06:32;;;;;;;;;;;19.00;99.90;;;;;;5071902;28;19919;-72
2022/10/11 11:09:12;;;;;;;;;;;19.30;99.90;;;;;;5056976;28;19916;-72
2022/10/11 11:11:57;;;;;;;;;;;18.80;99.90;;;;;;5057210;28;20003;-72
2022/10/11 11:14:43;;;;;;;;;;;18.60;99.90;;;;;;5075013;28;20349;-73
2022/10/11 11:17:14;;;;;;;;;;;18.50;99.90;;;;;;5056955;28;20368;-72
2022/10/11 11:19:52;;;;;;;;;;;18.00;99.90;;;;;;5039323;28;20264;-73
2022/10/11 11:22:37;;;;;;;;;;;17.90;99.90;;;;;;5069633;28;19967;-73
2022/10/11 11:25:23;;;;;;;;;;;17.70;99.90;;;;;;5044623;28;19917;-72
2022/10/11 11:30:42;;;;;;;;;;;17.70;99.90;;;;;;5089320;27;19992;-67
2022/10/11 11:33:15;;;;;;;;;;;17.60;99.90;;;;;;5089043;28;19912;-67
2022/10/11 11:35:42;;;;;;;;;;;17.40;99.90;;;;;;5090525;28;20427;-67
2022/10/11 11:38:11;;;;;;;;;;;17.50;99.90;;;;;;5086615;28;19912;-68
2022/10/11 11:40:40;;;;;;;;;;;17.50;99.90;;;;;;5089897;28;19912;-67
2022/10/11 11:43:13;;;;;;;;;;;17.30;99.90;;;;;;5074257;28;20016;-68
2022/10/11 11:45:49;;;;;;;;;;;17.10;99.90;;;;;;5083371;28;19938;-67
2022/10/11 11:48:19;;;;;;;;;;;17.00;99.90;;;;;;5079771;28;20363;-68
2022/10/11 11:50:50;;;;;;;;;;;16.70;99.90;;;;;;5090348;28;20290;-68
2022/10/11 11:53:18;;;;;;;;;;;16.50;99.90;;;;;;5087709;28;19917;-67
2022/10/11 11:56:02;;;;;;;;;;;16.10;99.90;;;;;;5085777;28;19913;-67
2022/10/11 11:58:47;;;;;;;;;;;16.10;99.90;;;;;;5077706;28;19912;-67
2022/10/11 12:01:31;;;;;;;;;;;16.30;99.90;;;;;;5087418;28;20386;-67
2022/10/11 12:04:01;;;;;;;;;;;16.80;99.90;;;;;;5089392;28;19912;-67
2022/10/11 12:06:31;;;;;;;;;;;17.40;99.90;;;;;;5088968;28;19920;-68
2022/10/11 12:09:02;;;;;;;;;;;17.60;99.90;;;;;;5090127;28;19916;-67
2022/10/11 12:11:37;;;;;;;;;;;17.70;99.90;;;;;;5090618;28;19947;-67
2022/10/11 12:14:23;;;;;;;;;;;18.00;99.90;;;;;;5094383;28;19966;-68
2022/10/11 12:17:09;;;;;;;;;;;17.80;99.90;;;;;;5088627;28;19912;-67
2022/10/11 12:19:36;;;;;;;;;;;17.40;99.90;;;;;;5069811;28;19913;-68
2022/10/11 12:22:19;;;;;;;;;;;17.10;99.90;;;;;;5081323;28;20366;-66
2022/10/11 12:24:55;;;;;;;;;;;16.80;99.90;;;;;;5070048;28;19913;-66
2022/10/11 12:27:40;;;;;;;;;;;16.20;99.90;;;;;;5073273;28;20374;-66
2022/10/11 12:30:25;;;;;;;;;;;16.00;99.90;;;;;;5106372;28;19931;-68
2022/10/11 12:32:51;;;;;;;;;;;15.80;99.90;;;;;;5108744;28;19912;-68
2022/10/11 12:38:16;;;;;;;;;;;16.00;99.90;;;;;;5104155;27;19923;-66
2022/10/11 12:40:45;;;;;;;;;;;16.10;99.90;;;;;;5090542;28;19982;-66
2022/10/11 12:43:17;;;;;;;;;;;16.20;99.90;;;;;;5090957;28;19912;-67
2022/10/11 12:45:46;;;;;;;;;;;16.00;99.90;;;;;;5090231;28;19912;-67
2022/10/11 12:48:20;;;;;;;;;;;15.80;99.90;;;;;;5086356;28;19923;-67
2022/10/11 12:50:54;;;;;;;;;;;15.90;99.90;;;;;;5092023;28;19919;-68
2022/10/11 12:53:26;;;;;;;;;;;16.30;99.90;;;;;;5089389;28;20232;-66
2022/10/11 12:55:59;;;;;;;;;;;16.80;99.90;;;;;;5100096;28;19916;-67
2022/10/11 12:58:28;;;;;;;;;;;17.00;99.90;;;;;;5087408;28;20403;-67
2022/10/11 13:00:56;;;;;;;;;;;17.10;99.90;;;;;;5084048;28;19939;-66
2022/10/11 13:03:27;;;;;;;;;;;17.10;99.90;;;;;;5090351;28;19961;-66
2022/10/11 13:05:55;;;;;;;;;;;17.20;99.90;;;;;;5088250;28;19908;-66
2022/10/11 13:08:37;;;;;;;;;;;16.80;99.90;;;;;;5088687;28;19955;-67
2022/10/11 13:11:04;;;;;;;;;;;16.90;99.90;;;;;;5078714;28;19954;-66
2022/10/11 13:13:33;;;;;;;;;;;17.00;99.90;;;;;;5083898;28;20350;-66
2022/10/11 13:16:03;;;;;;;;;;;17.20;99.90;;;;;;5084044;28;19962;-68
2022/10/11 13:18:28;;;;;;;;;;;17.10;99.90;;;;;;5088278;28;20340;-66
2022/10/11 13:20:54;;;;;;;;;;;17.40;99.60;;;;;;5088008;28;19909;-65
2022/10/11 13:23:22;;;;;;;;;;;17.30;98.00;;;;;;5089680;28;19920;-66
2022/10/11 13:25:47;;;;;;;;;;;17.20;97.60;;;;;;5080823;28;19969;-66
2022/10/11 13:28:13;;;;;;;;;;;16.50;98.40;;;;;;5087098;28;20390;-66
2022/10/11 13:30:42;;;;;;;;;;;16.80;98.50;;;;;;5083730;28;20009;-68
2022/10/11 13:33:16;;;;;;;;;;;16.80;98.40;;;;;;5089212;28;19916;-67
2022/10/11 13:35:42;;;;;;;;;;;17.10;98.00;;;;;;5089454;28;20425;-67
2022/10/11 13:38:07;;;;;;;;;;;16.50;98.60;;;;;;5088028;28;19920;-67
2022/10/11 13:40:34;;;;;;;;;;;16.40;98.60;;;;;;5087722;28;20012;-67
2022/10/11 13:42:59;;;;;;;;;;;16.60;99.60;;;;;;5088836;28;19920;-66
2022/10/11 13:45:26;;;;;;;;;;;16.60;97.60;;;;;;5087999;28;20393;-67
2022/10/11 13:47:52;;;;;;;;;;;16.80;98.30;;;;;;5084483;28;19921;-67
2022/10/11 13:50:29;;;;;;;;;;;16.90;97.90;;;;;;5073035;28;19919;-67
2022/10/11 13:52:59;;;;;;;;;;;16.60;97.60;;;;;;5081512;28;20377;-67
2022/10/11 13:55:26;;;;;;;;;;;16.70;98.30;;;;;;5074814;28;19916;-67
2022/10/11 13:57:52;;;;;;;;;;;16.70;97.50;;;;;;5074607;28;19970;-67
2022/10/11 14:00:22;;;;;;;;;;;16.80;98.70;;;;;;5075128;28;19921;-68
2022/10/11 14:02:57;;;;;;;;;;;16.70;99.50;;;;;;5075322;28;20497;-66
2022/10/11 14:05:28;;;;;;;;;;;16.80;99.10;;;;;;5063284;28;19912;-67
2022/10/11 14:07:54;;;;;;;;;;;16.60;99.30;;;;;;5090445;28;19916;-67
2022/10/11 14:10:21;;;;;;;;;;;16.60;99.90;;;;;;5087055;28;19916;-67
2022/10/11 14:12:56;;;;;;;;;;;16.60;99.90;;;;;;5075461;28;19999;-67
2022/10/11 14:15:25;;;;;;;;;;;16.50;99.90;;;;;;5074648;28;19924;-67
2022/10/11 14:17:50;;;;;;;;;;;16.60;99.90;;;;;;5075276;28;19940;-67
2022/10/11 14:20:20;;;;;;;;;;;16.30;99.90;;;;;;5075337;28;19913;-66
2022/10/11 14:22:49;;;;;;;;;;;16.20;99.90;;;;;;5075644;28;20400;-67
2022/10/11 14:25:17;;;;;;;;;;;16.20;99.90;;;;;;5071460;28;20298;-68
2022/10/11 14:27:42;;;;;;;;;;;16.30;99.90;;;;;;5087258;28;19915;-67
2022/10/11 14:30:17;;;;;;;;;;;16.10;99.90;;;;;;5075334;28;19912;-68
2022/10/11 14:32:43;;;;;;;;;;;16.20;99.90;;;;;;5072294;28;20066;-67
2022/10/11 14:35:13;;;;;;;;;;;16.20;99.90;;;;;;5074808;28;19909;-67
2022/10/11 14:37:39;;;;;;;;;;;16.20;99.90;;;;;;5070969;28;20386;-67
2022/10/11 14:40:10;;;;;;;;;;;16.30;99.90;;;;;;5073013;28;19915;-68